createdAt,value
2017-12-19T00:01:02.992Z,26.00
2017-12-19T00:02:09.967Z,26.00
2017-12-19T00:03:16.737Z,25.60
2017-12-19T00:04:23.522Z,21.10
2017-12-19T00:05:30.405Z,24.20
2017-12-19T00:06:37.315Z,22.00
2017-12-19T00:07:44.207Z,24.10
2017-12-19T00:08:50.970Z,24.70
2017-12-19T00:09:57.752Z,21.70
2017-12-19T00:11:04.625Z,22.00
2017-12-19T00:12:11.366Z,20.90
2017-12-19T00:13:18.149Z,18.50
2017-12-19T00:14:24.918Z,19.70
2017-12-19T00:15:31.730Z,22.10
2017-12-19T00:16:38.513Z,20.60
2017-12-19T00:17:45.365Z,19.70
2017-12-19T00:18:52.157Z,19.40
2017-12-19T00:19:58.975Z,20.60
2017-12-19T00:21:05.754Z,18.20
2017-12-19T00:22:12.590Z,19.50
2017-12-19T00:23:19.445Z,22.40
2017-12-19T00:24:26.252Z,19.80
2017-12-19T00:25:33.089Z,18.20
2017-12-19T00:26:39.943Z,18.20
2017-12-19T00:27:46.821Z,19.60
2017-12-19T00:28:53.605Z,17.20
2017-12-19T00:30:05.432Z,14.90
2017-12-19T00:31:07.282Z,19.50
2017-12-19T00:32:14.049Z,17.80
2017-12-19T00:33:20.853Z,18.90
2017-12-19T00:34:27.781Z,16.40
2017-12-19T00:35:34.550Z,17.80
2017-12-19T00:36:41.473Z,17.80
2017-12-19T00:37:48.256Z,16.90
2017-12-19T00:38:55.102Z,15.80
2017-12-19T00:40:01.889Z,18.60
2017-12-19T00:41:08.664Z,19.30
2017-12-19T00:42:15.441Z,17.00
2017-12-19T00:43:22.293Z,17.40
2017-12-19T00:44:29.070Z,17.70
2017-12-19T00:45:35.861Z,19.10
2017-12-19T00:46:42.730Z,17.70
2017-12-19T00:47:49.516Z,17.60
2017-12-19T00:48:56.272Z,17.50
2017-12-19T00:50:03.098Z,18.20
2017-12-19T00:51:09.875Z,17.30
2017-12-19T00:52:16.735Z,16.70
2017-12-19T00:53:23.517Z,16.40
2017-12-19T00:54:30.305Z,18.00
2017-12-19T00:55:37.122Z,18.60
2017-12-19T00:56:43.912Z,17.90
2017-12-19T00:57:50.733Z,17.20
2017-12-19T00:58:57.495Z,17.00
2017-12-19T01:00:04.331Z,17.70
2017-12-19T01:01:11.088Z,17.20
2017-12-19T01:02:17.996Z,18.40
2017-12-19T01:03:24.790Z,16.90
2017-12-19T01:04:31.545Z,16.60
2017-12-19T01:05:38.301Z,15.60
2017-12-19T01:06:45.045Z,16.80
2017-12-19T01:07:51.874Z,18.50
2017-12-19T01:08:58.661Z,16.40
2017-12-19T01:10:05.417Z,19.20
2017-12-19T01:11:12.265Z,16.70
2017-12-19T01:12:19.029Z,15.40
2017-12-19T01:13:25.814Z,17.40
2017-12-19T01:14:32.541Z,16.40
2017-12-19T01:15:39.328Z,18.30
2017-12-19T01:16:46.104Z,16.90
2017-12-19T01:17:52.875Z,16.20
2017-12-19T01:18:59.649Z,15.80
2017-12-19T01:20:06.413Z,17.80
2017-12-19T01:21:13.148Z,16.40
2017-12-19T01:22:19.925Z,14.70
2017-12-19T01:23:26.724Z,15.70
2017-12-19T01:24:33.464Z,16.60
2017-12-19T01:25:40.241Z,17.20
2017-12-19T01:26:46.968Z,12.10
2017-12-19T01:27:53.730Z,12.90
2017-12-19T01:29:00.536Z,10.10
2017-12-19T01:30:07.242Z,11.30
2017-12-19T01:31:14.093Z,8.80
2017-12-19T01:32:20.792Z,9.70
2017-12-19T01:33:27.597Z,8.10
2017-12-19T01:34:34.369Z,8.60
2017-12-19T01:35:41.078Z,10.20
2017-12-19T01:36:47.808Z,8.60
2017-12-19T01:37:54.512Z,8.30
2017-12-19T01:39:01.321Z,9.10
2017-12-19T01:40:08.484Z,7.20
2017-12-19T01:41:15.364Z,7.80
2017-12-19T01:42:22.064Z,8.30
2017-12-19T01:43:28.773Z,7.10
2017-12-19T01:44:35.553Z,8.00
2017-12-19T01:45:42.284Z,8.80
2017-12-19T01:46:49.012Z,9.00
2017-12-19T01:47:55.720Z,9.30
2017-12-19T01:49:02.516Z,10.50
2017-12-19T01:50:09.272Z,9.00
2017-12-19T01:51:15.996Z,8.40
2017-12-19T01:52:22.716Z,10.30
2017-12-19T01:53:29.625Z,9.60
2017-12-19T01:54:36.357Z,9.70
2017-12-19T01:55:43.184Z,12.10
2017-12-19T01:56:49.893Z,11.70
2017-12-19T01:57:56.624Z,9.70
2017-12-19T01:59:03.448Z,10.40
2017-12-19T02:00:10.153Z,10.90
2017-12-19T02:01:17.032Z,12.70
2017-12-19T02:02:23.741Z,10.90
2017-12-19T02:03:30.532Z,10.30
2017-12-19T02:04:37.284Z,10.50
2017-12-19T02:05:44.001Z,10.80
2017-12-19T02:06:50.756Z,10.70
2017-12-19T02:07:57.464Z,11.50
2017-12-19T02:09:04.252Z,11.60
2017-12-19T02:10:10.993Z,11.30
2017-12-19T02:11:17.715Z,12.80
2017-12-19T02:12:24.472Z,11.60
2017-12-19T02:13:31.172Z,9.00
2017-12-19T02:14:37.952Z,13.60
2017-12-19T02:15:44.657Z,11.50
2017-12-19T02:16:51.391Z,11.10
2017-12-19T02:17:58.184Z,10.90
2017-12-19T02:19:05.120Z,11.70
2017-12-19T02:20:11.932Z,11.60
2017-12-19T02:21:18.821Z,10.50
2017-12-19T02:22:25.708Z,10.70
2017-12-19T02:23:32.604Z,10.70
2017-12-19T02:24:39.416Z,9.90
2017-12-19T02:25:46.249Z,13.90
2017-12-19T02:26:53.048Z,12.40
2017-12-19T02:27:59.929Z,11.90
2017-12-19T02:29:06.844Z,10.10
2017-12-19T02:30:13.664Z,12.00
2017-12-19T02:31:20.473Z,10.90
2017-12-19T02:32:27.300Z,10.90
2017-12-19T02:33:34.133Z,11.80
2017-12-19T02:34:40.937Z,9.30
2017-12-19T02:35:47.721Z,11.30
2017-12-19T02:36:54.540Z,10.60
2017-12-19T02:38:01.365Z,10.00
2017-12-19T02:39:08.196Z,11.30
2017-12-19T02:40:15.032Z,10.20
2017-12-19T02:41:21.833Z,10.80
2017-12-19T02:42:28.628Z,9.70
2017-12-19T02:43:35.488Z,11.80
2017-12-19T02:44:42.397Z,10.30
2017-12-19T02:45:49.206Z,8.80
2017-12-19T02:46:56.196Z,9.80
2017-12-19T02:48:03.048Z,11.10
2017-12-19T02:49:09.863Z,12.10
2017-12-19T02:50:16.672Z,9.70
2017-12-19T02:51:23.512Z,11.80
2017-12-19T02:52:30.436Z,9.80
2017-12-19T02:53:37.285Z,10.60
2017-12-19T02:54:44.098Z,11.00
2017-12-19T02:55:50.896Z,10.10
2017-12-19T02:56:57.712Z,10.00
2017-12-19T02:58:04.548Z,9.80
2017-12-19T02:59:11.596Z,11.40
2017-12-19T03:00:18.464Z,11.20
2017-12-19T03:01:25.288Z,12.20
2017-12-19T03:02:32.104Z,9.30
2017-12-19T03:03:38.928Z,13.10
2017-12-19T03:04:45.904Z,11.90
2017-12-19T03:05:52.744Z,10.80
2017-12-19T03:06:59.585Z,9.80
2017-12-19T03:08:06.468Z,11.40
2017-12-19T03:09:13.325Z,11.10
2017-12-19T03:10:20.240Z,10.30
2017-12-19T03:11:27.087Z,13.60
2017-12-19T03:12:34.092Z,10.60
2017-12-19T03:13:41.250Z,9.30
2017-12-19T03:14:48.080Z,11.00
2017-12-19T03:15:54.952Z,11.50
2017-12-19T03:17:01.801Z,12.70
2017-12-19T03:18:08.760Z,10.90
2017-12-19T03:19:15.627Z,10.00
2017-12-19T03:20:22.555Z,10.40
2017-12-19T03:21:29.604Z,9.60
2017-12-19T03:22:36.448Z,10.40
2017-12-19T03:23:43.220Z,12.20
2017-12-19T03:24:50.156Z,11.30
2017-12-19T03:25:57.159Z,10.40
2017-12-19T03:27:04.017Z,10.30
2017-12-19T03:28:10.849Z,10.00
2017-12-19T03:29:17.767Z,11.10
2017-12-19T03:30:24.602Z,11.30
2017-12-19T03:31:31.516Z,10.50
2017-12-19T03:32:38.336Z,11.30
2017-12-19T03:33:45.308Z,10.60
2017-12-19T03:34:52.220Z,11.00
2017-12-19T03:35:59.137Z,12.30
2017-12-19T03:37:06.001Z,11.40
2017-12-19T03:38:12.893Z,12.50
2017-12-19T03:39:19.720Z,10.80
2017-12-19T03:40:26.481Z,11.70
2017-12-19T03:41:33.383Z,12.10
2017-12-19T03:42:40.224Z,11.50
2017-12-19T03:43:47.144Z,11.90
2017-12-19T03:44:53.985Z,9.90
2017-12-19T03:46:00.964Z,10.50
2017-12-19T03:47:07.840Z,12.50
2017-12-19T03:48:14.761Z,10.30
2017-12-19T03:49:21.580Z,11.20
2017-12-19T03:50:28.440Z,10.70
2017-12-19T03:51:35.256Z,12.50
2017-12-19T03:52:42.235Z,13.90
2017-12-19T03:53:49.056Z,9.60
2017-12-19T03:54:55.961Z,12.10
2017-12-19T03:56:02.841Z,10.60
2017-12-19T03:57:09.681Z,10.30
2017-12-19T03:58:16.624Z,11.20
2017-12-19T03:59:23.475Z,11.70
2017-12-19T04:00:30.572Z,10.60
2017-12-19T04:01:37.396Z,11.10
2017-12-19T04:02:44.520Z,11.20
2017-12-19T04:03:51.356Z,10.80
2017-12-19T04:04:58.241Z,10.20
2017-12-19T04:06:05.172Z,13.40
2017-12-19T04:07:12.038Z,10.50
2017-12-19T04:08:18.936Z,12.60
2017-12-19T04:09:25.794Z,10.80
2017-12-19T04:10:32.744Z,13.70
2017-12-19T04:11:39.582Z,13.40
2017-12-19T04:12:46.552Z,12.80
2017-12-19T04:13:53.428Z,12.00
2017-12-19T04:15:00.328Z,14.00
2017-12-19T04:16:07.314Z,13.60
2017-12-19T04:17:14.213Z,12.90
2017-12-19T04:18:21.053Z,12.10
2017-12-19T04:19:28.129Z,11.70
2017-12-19T04:20:34.885Z,13.60
2017-12-19T04:21:41.660Z,11.50
2017-12-19T04:22:48.517Z,11.50
2017-12-19T04:23:55.440Z,12.20
2017-12-19T04:25:02.281Z,11.00
2017-12-19T04:26:09.213Z,10.60
2017-12-19T04:27:16.077Z,11.70
2017-12-19T04:28:22.998Z,12.30
2017-12-19T04:29:29.824Z,13.40
2017-12-19T04:30:36.616Z,10.80
2017-12-19T04:31:43.410Z,11.80
2017-12-19T04:32:50.256Z,12.00
2017-12-19T04:33:57.019Z,11.40
2017-12-19T04:35:03.800Z,13.60
2017-12-19T04:36:10.571Z,11.40
2017-12-19T04:37:17.405Z,10.60
2017-12-19T04:38:24.237Z,13.10
2017-12-19T04:39:31.064Z,11.90
2017-12-19T04:40:37.839Z,13.50
2017-12-19T04:41:44.692Z,11.80
2017-12-19T04:42:51.508Z,11.90
2017-12-19T04:43:58.409Z,10.50
2017-12-19T04:45:05.234Z,11.20
2017-12-19T04:46:12.160Z,11.30
2017-12-19T04:47:19.009Z,12.30
2017-12-19T04:48:25.837Z,11.30
2017-12-19T04:49:32.659Z,11.40
2017-12-19T04:50:39.467Z,11.90
2017-12-19T04:51:46.349Z,9.70
2017-12-19T04:52:53.205Z,11.10
2017-12-19T04:54:00.254Z,11.50
2017-12-19T04:55:07.108Z,13.40
2017-12-19T04:56:13.924Z,10.80
2017-12-19T04:57:20.728Z,10.40
2017-12-19T04:58:27.647Z,10.40
2017-12-19T04:59:34.457Z,11.70
2017-12-19T05:00:41.276Z,11.40
2017-12-19T05:01:48.175Z,12.00
2017-12-19T05:02:55.049Z,11.50
2017-12-19T05:04:01.913Z,13.30
2017-12-19T05:05:08.989Z,10.40
2017-12-19T05:06:15.828Z,11.70
2017-12-19T05:07:22.610Z,11.20
2017-12-19T05:08:29.472Z,12.00
2017-12-19T05:09:36.358Z,13.40
2017-12-19T05:10:43.230Z,12.40
2017-12-19T05:11:50.012Z,11.50
2017-12-19T05:12:56.804Z,11.50
2017-12-19T05:14:03.656Z,12.80
2017-12-19T05:15:10.597Z,11.40
2017-12-19T05:16:17.419Z,11.10
2017-12-19T05:17:24.268Z,10.80
2017-12-19T05:18:31.204Z,11.30
2017-12-19T05:19:38.072Z,9.90
2017-12-19T05:20:44.965Z,11.10
2017-12-19T05:21:51.914Z,9.50
2017-12-19T05:22:58.744Z,10.10
2017-12-19T05:24:05.586Z,10.50
2017-12-19T05:25:12.538Z,10.80
2017-12-19T05:26:19.396Z,11.50
2017-12-19T05:27:26.316Z,15.40
2017-12-19T05:28:33.145Z,12.50
2017-12-19T05:29:40.113Z,14.00
2017-12-19T05:30:46.966Z,13.90
2017-12-19T05:31:53.872Z,13.00
2017-12-19T05:33:00.688Z,11.80
2017-12-19T05:34:07.629Z,11.40
2017-12-19T05:35:14.420Z,11.20
2017-12-19T05:36:21.281Z,13.90
2017-12-19T05:37:28.124Z,12.40
2017-12-19T05:38:34.928Z,10.10
2017-12-19T05:39:41.866Z,15.00
2017-12-19T05:40:48.734Z,12.20
2017-12-19T05:41:55.603Z,13.10
2017-12-19T05:43:02.397Z,12.90
2017-12-19T05:44:09.245Z,13.40
2017-12-19T05:45:16.101Z,13.40
2017-12-19T05:46:22.973Z,15.70
2017-12-19T05:47:29.821Z,13.20
2017-12-19T05:48:36.669Z,13.40
2017-12-19T05:49:43.655Z,12.50
2017-12-19T05:50:50.453Z,11.90
2017-12-19T05:51:57.385Z,14.10
2017-12-19T05:53:04.238Z,13.50
2017-12-19T05:54:11.153Z,13.00
2017-12-19T05:55:18.028Z,13.10
2017-12-19T05:56:24.919Z,12.50
2017-12-19T05:57:31.705Z,11.70
2017-12-19T05:58:38.562Z,10.10
2017-12-19T05:59:45.400Z,11.40
2017-12-19T06:00:52.256Z,12.40
2017-12-19T06:01:59.210Z,13.40
2017-12-19T06:03:06.036Z,13.20
2017-12-19T06:04:12.901Z,13.80
2017-12-19T06:05:19.813Z,11.80
2017-12-19T06:06:26.698Z,14.40
2017-12-19T06:07:33.526Z,15.00
2017-12-19T06:08:40.485Z,12.10
2017-12-19T06:09:47.337Z,13.80
2017-12-19T06:10:54.273Z,13.60
2017-12-19T06:12:01.119Z,10.60
2017-12-19T06:13:08.062Z,12.70
2017-12-19T06:14:14.853Z,12.70
2017-12-19T06:15:21.672Z,14.20
2017-12-19T06:16:28.480Z,15.80
2017-12-19T06:17:35.263Z,13.70
2017-12-19T06:18:42.092Z,13.80
2017-12-19T06:19:48.909Z,16.00
2017-12-19T06:20:55.752Z,12.90
2017-12-19T06:22:02.657Z,12.90
2017-12-19T06:23:09.552Z,15.40
2017-12-19T06:24:16.561Z,13.20
2017-12-19T06:25:23.380Z,12.80
2017-12-19T06:26:30.256Z,13.60
2017-12-19T06:27:37.063Z,13.00
2017-12-19T06:28:43.880Z,14.60
2017-12-19T06:29:50.742Z,11.50
2017-12-19T06:30:57.609Z,13.40
2017-12-19T06:32:04.444Z,11.80
2017-12-19T06:33:11.272Z,12.20
2017-12-19T06:34:18.180Z,11.70
2017-12-19T06:35:25.060Z,11.50
2017-12-19T06:36:31.993Z,12.00
2017-12-19T06:37:38.872Z,14.10
2017-12-19T06:38:45.816Z,12.70
2017-12-19T06:39:52.708Z,12.00
2017-12-19T06:40:59.581Z,13.40
2017-12-19T06:42:06.457Z,13.00
2017-12-19T06:43:13.333Z,13.00
2017-12-19T06:44:20.204Z,15.50
2017-12-19T06:45:27.089Z,13.60
2017-12-19T06:46:34.024Z,11.20
2017-12-19T06:47:40.864Z,12.50
2017-12-19T06:48:47.737Z,14.30
2017-12-19T06:49:54.660Z,12.70
2017-12-19T06:51:01.532Z,13.10
2017-12-19T06:52:08.452Z,13.60
2017-12-19T06:53:15.366Z,13.10
2017-12-19T06:54:22.212Z,12.20
2017-12-19T06:55:29.085Z,12.50
2017-12-19T06:56:36.014Z,11.40
2017-12-19T06:57:42.892Z,13.00
2017-12-19T06:58:49.809Z,13.70
2017-12-19T06:59:56.618Z,13.40
2017-12-19T07:01:03.588Z,14.00
2017-12-19T07:02:10.516Z,14.10
2017-12-19T07:03:17.384Z,15.40
2017-12-19T07:04:24.270Z,13.90
2017-12-19T07:05:31.149Z,15.40
2017-12-19T07:06:37.961Z,12.60
2017-12-19T07:07:44.953Z,15.20
2017-12-19T07:08:51.789Z,12.00
2017-12-19T07:09:58.721Z,13.90
2017-12-19T07:11:05.585Z,13.90
2017-12-19T07:12:12.540Z,16.70
2017-12-19T07:13:19.390Z,12.50
2017-12-19T07:14:26.284Z,15.80
2017-12-19T07:15:33.145Z,13.50
2017-12-19T07:16:40.076Z,15.40
2017-12-19T07:17:46.886Z,13.40
2017-12-19T07:18:53.705Z,12.90
2017-12-19T07:20:00.502Z,12.00
2017-12-19T07:21:07.349Z,17.20
2017-12-19T07:22:14.128Z,15.00
2017-12-19T07:23:20.951Z,11.50
2017-12-19T07:24:27.764Z,13.40
2017-12-19T07:25:34.664Z,12.40
2017-12-19T07:26:41.516Z,18.50
2017-12-19T07:27:48.280Z,18.50
2017-12-19T07:28:55.076Z,19.20
2017-12-19T07:30:01.922Z,17.40
2017-12-19T07:31:08.836Z,17.40
2017-12-19T07:32:15.684Z,17.40
2017-12-19T07:33:22.625Z,16.10
2017-12-19T07:34:29.397Z,15.30
2017-12-19T07:35:36.212Z,15.70
2017-12-19T07:36:43.049Z,16.10
2017-12-19T07:37:49.820Z,15.00
2017-12-19T07:38:56.649Z,16.60
2017-12-19T07:40:03.432Z,17.30
2017-12-19T07:41:10.281Z,18.50
2017-12-19T07:42:17.077Z,19.70
2017-12-19T07:43:23.937Z,16.60
2017-12-19T07:44:30.701Z,17.10
2017-12-19T07:45:37.477Z,15.60
2017-12-19T07:46:44.237Z,13.90
2017-12-19T07:47:51.050Z,15.60
2017-12-19T07:48:57.906Z,16.80
2017-12-19T07:50:04.641Z,15.80
2017-12-19T07:51:11.482Z,16.30
2017-12-19T07:52:18.392Z,14.80
2017-12-19T07:53:25.184Z,17.50
2017-12-19T07:54:31.931Z,16.00
2017-12-19T07:55:38.849Z,17.60
2017-12-19T07:56:45.596Z,16.90
2017-12-19T07:57:52.366Z,13.40
2017-12-19T07:58:59.194Z,17.10
2017-12-19T08:00:05.953Z,18.00
2017-12-19T08:01:12.825Z,15.70
2017-12-19T08:02:19.583Z,15.80
2017-12-19T08:03:26.333Z,17.10
2017-12-19T08:04:33.109Z,17.00
2017-12-19T08:05:39.849Z,15.50
2017-12-19T08:06:46.592Z,16.30
2017-12-19T08:07:53.413Z,15.60
2017-12-19T08:09:00.132Z,16.00
2017-12-19T08:10:07.073Z,19.60
2017-12-19T08:11:13.823Z,19.00
2017-12-19T08:12:20.651Z,18.20
2017-12-19T08:13:27.428Z,14.30
2017-12-19T08:14:34.181Z,16.70
2017-12-19T08:15:40.932Z,17.70
2017-12-19T08:16:47.851Z,18.40
2017-12-19T08:17:54.653Z,19.20
2017-12-19T08:19:01.472Z,16.10
2017-12-19T08:20:08.301Z,18.10
2017-12-19T08:21:15.077Z,17.40
2017-12-19T08:22:21.888Z,15.30
2017-12-19T08:23:28.641Z,14.70
2017-12-19T08:24:35.397Z,14.50
2017-12-19T08:25:42.208Z,16.90
2017-12-19T08:26:49.044Z,16.20
2017-12-19T08:27:55.781Z,14.80
2017-12-19T08:29:02.551Z,14.80
2017-12-19T08:30:09.309Z,16.00
2017-12-19T08:31:16.245Z,15.80
2017-12-19T08:32:23.082Z,15.70
2017-12-19T08:33:29.847Z,18.80
2017-12-19T08:34:36.597Z,19.10
2017-12-19T08:35:43.361Z,16.40
2017-12-19T08:36:50.116Z,18.00
2017-12-19T08:37:56.860Z,18.20
2017-12-19T08:39:03.608Z,18.60
2017-12-19T08:40:10.360Z,19.60
2017-12-19T08:41:17.092Z,18.20
2017-12-19T08:42:23.992Z,17.60
2017-12-19T08:43:30.768Z,21.40
2017-12-19T08:44:37.500Z,17.30
2017-12-19T08:45:44.289Z,17.50
2017-12-19T08:46:51.078Z,17.20
2017-12-19T08:47:57.817Z,21.50
2017-12-19T08:49:04.590Z,21.20
2017-12-19T08:50:11.449Z,18.90
2017-12-19T08:51:18.239Z,22.00
2017-12-19T08:52:24.994Z,18.30
2017-12-19T08:53:31.760Z,20.40
2017-12-19T08:54:38.529Z,22.10
2017-12-19T08:55:45.277Z,28.80
2017-12-19T08:56:52.128Z,28.90
2017-12-19T08:57:58.853Z,39.30
2017-12-19T08:59:05.628Z,34.40
2017-12-19T09:00:12.378Z,33.20
2017-12-19T09:01:19.134Z,24.80
2017-12-19T09:02:25.937Z,20.10
2017-12-19T09:03:32.689Z,21.00
2017-12-19T09:04:39.499Z,18.90
2017-12-19T09:05:46.604Z,23.40
2017-12-19T09:06:53.360Z,19.90
2017-12-19T09:08:00.110Z,22.20
2017-12-19T09:09:06.829Z,19.40
2017-12-19T09:10:13.645Z,18.60
2017-12-19T09:11:20.412Z,20.50
2017-12-19T09:12:27.184Z,17.90
2017-12-19T09:13:33.918Z,25.30
2017-12-19T09:14:40.677Z,22.80
2017-12-19T09:15:47.448Z,21.10
2017-12-19T09:16:54.177Z,23.90
2017-12-19T09:18:00.971Z,21.10
2017-12-19T09:19:07.734Z,22.80
2017-12-19T09:20:14.563Z,22.50
2017-12-19T09:21:21.304Z,22.10
2017-12-19T09:22:28.096Z,29.00
2017-12-19T09:23:34.842Z,23.10
2017-12-19T09:24:41.602Z,23.30
2017-12-19T09:25:48.468Z,24.70
2017-12-19T09:26:55.229Z,27.10
2017-12-19T09:28:02.021Z,29.00
2017-12-19T09:29:08.870Z,25.80
2017-12-19T09:30:15.625Z,20.50
2017-12-19T09:31:22.389Z,24.60
2017-12-19T09:32:29.180Z,24.60
2017-12-19T09:33:35.900Z,21.90
2017-12-19T09:34:42.641Z,23.50
2017-12-19T09:35:49.404Z,25.40
2017-12-19T09:36:56.141Z,24.40
2017-12-19T09:38:02.905Z,25.30
2017-12-19T09:39:09.646Z,21.90
2017-12-19T09:40:16.417Z,25.50
2017-12-19T09:41:23.150Z,22.30
2017-12-19T09:42:29.897Z,27.40
2017-12-19T09:43:36.677Z,23.90
2017-12-19T09:44:43.560Z,25.20
2017-12-19T09:45:50.284Z,25.10
2017-12-19T09:46:57.131Z,23.80
2017-12-19T09:48:03.898Z,23.40
2017-12-19T09:49:10.701Z,25.70
2017-12-19T09:50:17.469Z,20.60
2017-12-19T09:51:24.221Z,22.40
2017-12-19T09:52:30.965Z,23.30
2017-12-19T09:53:37.756Z,25.20
2017-12-19T09:54:44.512Z,24.30
2017-12-19T09:55:51.296Z,20.50
2017-12-19T09:56:58.005Z,20.60
2017-12-19T09:58:04.785Z,23.30
2017-12-19T09:59:11.528Z,22.70
2017-12-19T10:00:18.292Z,23.40
2017-12-19T10:01:25.030Z,23.30
2017-12-19T10:02:31.846Z,19.50
2017-12-19T10:03:38.614Z,24.20
2017-12-19T10:04:45.413Z,25.80
2017-12-19T10:05:52.253Z,21.90
2017-12-19T10:06:59.014Z,24.60
2017-12-19T10:08:05.772Z,26.30
2017-12-19T10:09:12.538Z,25.40
2017-12-19T10:10:19.312Z,24.90
2017-12-19T10:11:26.056Z,24.80
2017-12-19T10:12:32.789Z,22.60
2017-12-19T10:13:39.530Z,24.70
2017-12-19T10:14:46.264Z,20.20
2017-12-19T10:15:53.021Z,21.10
2017-12-19T10:16:59.747Z,24.00
2017-12-19T10:18:06.546Z,26.40
2017-12-19T10:19:13.293Z,23.80
2017-12-19T10:20:20.081Z,24.70
2017-12-19T10:21:26.850Z,23.30
2017-12-19T10:22:33.717Z,23.20
2017-12-19T10:23:40.541Z,21.50
2017-12-19T10:24:47.424Z,24.30
2017-12-19T10:25:54.308Z,21.20
2017-12-19T10:27:01.221Z,25.40
2017-12-19T10:28:08.073Z,23.40
2017-12-19T10:29:14.977Z,25.30
2017-12-19T10:30:21.901Z,20.50
2017-12-19T10:31:28.733Z,20.20
2017-12-19T10:32:35.505Z,22.50
2017-12-19T10:33:42.325Z,20.20
2017-12-19T10:34:49.085Z,20.40
2017-12-19T10:35:55.857Z,22.30
2017-12-19T10:37:02.596Z,26.60
2017-12-19T10:38:09.401Z,25.50
2017-12-19T10:39:16.125Z,22.50
2017-12-19T10:40:22.885Z,25.60
2017-12-19T10:41:29.713Z,22.00
2017-12-19T10:42:36.497Z,24.10
2017-12-19T10:43:43.329Z,34.00
2017-12-19T10:44:50.061Z,35.70
2017-12-19T10:45:56.921Z,33.40
2017-12-19T10:47:03.647Z,30.10
2017-12-19T10:48:10.366Z,25.70
2017-12-19T10:49:17.108Z,23.70
2017-12-19T10:50:23.830Z,22.50
2017-12-19T10:51:30.629Z,19.90
2017-12-19T10:52:37.369Z,21.40
2017-12-19T10:53:44.093Z,18.90
2017-12-19T10:54:50.835Z,18.80
2017-12-19T10:55:57.688Z,18.30
2017-12-19T10:57:04.428Z,19.30
2017-12-19T10:58:11.184Z,24.20
2017-12-19T10:59:17.937Z,24.10
2017-12-19T11:00:24.733Z,29.20
2017-12-19T11:01:31.889Z,132.00
2017-12-19T11:02:38.624Z,48.00
2017-12-19T11:03:45.356Z,20.60
2017-12-19T11:04:52.151Z,21.70
2017-12-19T11:05:58.953Z,21.10
2017-12-19T11:07:05.718Z,19.90
2017-12-19T11:08:12.496Z,21.30
2017-12-19T11:09:19.378Z,23.30
2017-12-19T11:10:26.237Z,71.50
2017-12-19T11:11:33.029Z,29.30
2017-12-19T11:12:39.797Z,30.90
2017-12-19T11:13:46.561Z,22.20
2017-12-19T11:14:53.353Z,26.80
2017-12-19T11:16:00.205Z,26.30
2017-12-19T11:17:06.997Z,22.20
2017-12-19T11:18:13.781Z,24.90
2017-12-19T11:19:20.628Z,38.00
2017-12-19T11:20:27.388Z,29.30
2017-12-19T11:21:34.161Z,29.60
2017-12-19T11:22:41.069Z,23.40
2017-12-19T11:23:47.821Z,22.00
2017-12-19T11:24:54.813Z,20.70
2017-12-19T11:26:01.766Z,21.30
2017-12-19T11:27:08.785Z,19.40
2017-12-19T11:28:15.808Z,19.90
2017-12-19T11:29:22.845Z,20.00
2017-12-19T11:30:29.748Z,20.30
2017-12-19T11:31:36.608Z,22.80
2017-12-19T11:32:43.545Z,17.60
2017-12-19T11:33:50.422Z,16.50
2017-12-19T11:34:57.402Z,20.60
2017-12-19T11:36:04.318Z,20.40
2017-12-19T11:37:11.333Z,17.00
2017-12-19T11:38:19.201Z,18.50
2017-12-19T11:39:25.100Z,19.70
2017-12-19T11:40:32.038Z,17.70
2017-12-19T11:41:38.873Z,18.70
2017-12-19T11:42:45.717Z,20.60
2017-12-19T11:43:52.468Z,15.20
2017-12-19T11:44:59.272Z,20.40
2017-12-19T11:46:06.053Z,19.90
2017-12-19T11:47:12.844Z,19.70
2017-12-19T11:48:19.700Z,21.90
2017-12-19T11:49:26.520Z,15.90
2017-12-19T11:50:33.263Z,17.10
2017-12-19T11:51:40.104Z,16.90
2017-12-19T11:52:46.936Z,19.80
2017-12-19T11:53:53.753Z,19.20
2017-12-19T11:55:00.560Z,15.90
2017-12-19T11:56:07.351Z,18.30
2017-12-19T11:57:14.324Z,19.20
2017-12-19T11:58:21.123Z,18.60
2017-12-19T11:59:27.929Z,17.60
2017-12-19T12:00:34.761Z,15.10
2017-12-19T12:01:41.597Z,18.70
2017-12-19T12:02:48.437Z,20.30
2017-12-19T12:03:55.279Z,18.30
2017-12-19T12:05:02.084Z,18.40
2017-12-19T12:06:08.974Z,18.60
2017-12-19T12:07:15.748Z,22.90
2017-12-19T12:08:22.621Z,15.40
2017-12-19T12:09:29.466Z,20.60
2017-12-19T12:10:36.268Z,19.40
2017-12-19T12:11:43.063Z,17.30
2017-12-19T12:12:49.872Z,16.60
2017-12-19T12:13:56.698Z,18.40
2017-12-19T12:15:03.459Z,15.40
2017-12-19T12:16:10.311Z,18.50
2017-12-19T12:17:17.067Z,19.60
2017-12-19T12:18:23.828Z,20.70
2017-12-19T12:19:30.756Z,19.90
2017-12-19T12:20:37.505Z,18.00
2017-12-19T12:21:44.260Z,20.00
2017-12-19T12:22:51.177Z,15.60
2017-12-19T12:23:58.000Z,18.80
2017-12-19T12:25:04.862Z,18.50
2017-12-19T12:26:11.645Z,21.40
2017-12-19T12:27:18.445Z,19.00
2017-12-19T12:28:25.224Z,19.00
2017-12-19T12:29:32.126Z,19.10
2017-12-19T12:30:38.904Z,18.40
2017-12-19T12:31:45.683Z,16.80
2017-12-19T12:32:52.468Z,17.70
2017-12-19T12:33:59.268Z,14.20
2017-12-19T12:35:06.090Z,17.90
2017-12-19T12:36:12.880Z,21.00
2017-12-19T12:37:19.669Z,20.40
2017-12-19T12:38:26.565Z,21.20
2017-12-19T12:39:33.312Z,16.30
2017-12-19T12:40:40.110Z,20.20
2017-12-19T12:41:46.877Z,17.90
2017-12-19T12:42:53.717Z,20.60
2017-12-19T12:44:00.488Z,15.90
2017-12-19T12:45:07.273Z,17.70
2017-12-19T12:46:14.188Z,18.60
2017-12-19T12:47:21.032Z,15.70
2017-12-19T12:48:27.765Z,19.10
2017-12-19T12:52:49.925Z,18.00
2017-12-19T12:53:56.737Z,16.00
2017-12-19T12:55:03.486Z,14.80
2017-12-19T12:56:10.244Z,17.10
2017-12-19T12:57:16.993Z,17.50
2017-12-19T12:58:23.862Z,16.50
2017-12-19T12:59:30.620Z,20.60
2017-12-19T13:00:37.388Z,17.60
2017-12-19T13:01:44.290Z,16.70
2017-12-19T13:02:51.240Z,18.50
2017-12-19T13:03:58.105Z,18.50
2017-12-19T13:05:04.904Z,19.10
2017-12-19T13:06:11.677Z,19.50
2017-12-19T13:07:18.693Z,21.10
2017-12-19T13:08:25.563Z,18.00
2017-12-19T13:09:32.502Z,19.30
2017-12-19T13:10:39.281Z,19.20
2017-12-19T13:11:46.062Z,17.60
2017-12-19T13:12:52.941Z,17.80
2017-12-19T13:13:59.712Z,18.90
2017-12-19T13:15:06.572Z,20.60
2017-12-19T13:16:13.420Z,15.50
2017-12-19T13:17:20.366Z,18.30
2017-12-19T13:18:27.266Z,16.10
2017-12-19T13:19:34.173Z,16.70
2017-12-19T13:20:40.981Z,19.70
2017-12-19T13:21:47.785Z,20.20
2017-12-19T13:22:54.561Z,18.50
2017-12-19T13:24:01.365Z,17.20
2017-12-19T13:25:08.127Z,18.00
2017-12-19T13:26:14.889Z,18.60
2017-12-19T13:27:21.704Z,18.40
2017-12-19T13:28:28.476Z,20.00
2017-12-19T13:29:35.326Z,20.20
2017-12-19T13:30:42.112Z,20.10
2017-12-19T13:31:49.105Z,23.10
2017-12-19T13:32:55.904Z,19.50
2017-12-19T13:34:02.688Z,18.40
2017-12-19T13:35:09.489Z,16.70
2017-12-19T13:36:16.398Z,15.60
2017-12-19T13:37:23.319Z,19.40
2017-12-19T13:38:30.225Z,21.10
2017-12-19T13:39:37.035Z,15.90
2017-12-19T13:40:43.829Z,22.90
2017-12-19T13:41:50.636Z,17.90
2017-12-19T13:42:57.477Z,19.10
2017-12-19T13:44:04.302Z,17.20
2017-12-19T13:45:11.223Z,21.30
2017-12-19T13:46:18.040Z,21.00
2017-12-19T13:47:24.843Z,19.60
2017-12-19T13:48:31.665Z,18.80
2017-12-19T13:49:38.461Z,18.00
2017-12-19T13:50:45.297Z,18.50
2017-12-19T13:51:52.086Z,19.90
2017-12-19T13:52:58.917Z,17.30
2017-12-19T13:54:05.665Z,16.60
2017-12-19T13:55:12.502Z,18.00
2017-12-19T13:56:19.305Z,13.20
2017-12-19T13:57:26.044Z,18.50
2017-12-19T13:58:32.935Z,17.20
2017-12-19T13:59:39.806Z,17.40
2017-12-19T14:00:46.689Z,14.80
2017-12-19T14:01:53.508Z,15.00
2017-12-19T14:03:00.424Z,18.30
2017-12-19T14:04:07.164Z,14.60
2017-12-19T14:05:13.940Z,20.90
2017-12-19T14:06:20.696Z,16.90
2017-12-19T14:07:27.545Z,16.30
2017-12-19T14:08:34.328Z,17.90
2017-12-19T14:09:41.097Z,15.80
2017-12-19T14:10:47.961Z,17.80
2017-12-19T14:11:54.772Z,14.60
2017-12-19T14:13:01.560Z,15.70
2017-12-19T14:14:08.404Z,13.00
2017-12-19T14:15:15.190Z,18.10
2017-12-19T14:16:21.961Z,13.80
2017-12-19T14:17:28.809Z,12.90
2017-12-19T14:18:35.580Z,16.90
2017-12-19T14:19:42.362Z,14.70
2017-12-19T14:20:49.125Z,17.00
2017-12-19T14:21:55.893Z,17.20
2017-12-19T14:23:02.653Z,13.40
2017-12-19T14:24:09.456Z,12.70
2017-12-19T14:25:16.313Z,16.30